Lake Cumberland Regional Airport
KSME : now visible

Airfield :











YOU CAN JOIN US ON...

 
LOGIN :

Register | Disclaimer

   EN    FR    IT 

 









Legend :    VFR   Marginal VFR   IFR   Intensive IFR   Very Intensive IFR
Visi :
Ceiling :
>= 8 km
>= 3000ft
5 to 8 km
1000 to 3000 ft
1500m to 5 km
500 to 1000 ft
800 to 1500m
200 to 500 ft
< 800m
< 200 ft
Symbols :   Thunderstorms  Fog  Heavy snow  Heavy precipitations  Wind > 20 kt







- Airport Elevation : 927 ft


KSME - Lake Cumberland Regional

CURRENT METAR :
  • 220055Z AUTO 00000KT 10SM CLR 23/12 A3021 RMK AO2

EXPIRED METARs :
  • 220035Z AUTO 00000KT 10SM CLR 24/11 A3021 RMK AO2
  • 220015Z AUTO 00000KT 10SM CLR 25/10 A3020 RMK AO2
  • 212355Z AUTO 00000KT 10SM CLR 26/10 A3020 RMK AO2 TSNO
  • 212335Z AUTO 20003KT 10SM SCT070 27/10 A3020 RMK AO2
  • 212315Z AUTO 20003KT 10SM SCT070 28/10 A3020 RMK AO2 TSNO
  • 212255Z AUTO 19004KT 10SM CLR 29/09 A3020 RMK AO2
  • 212235Z AUTO 21005KT 10SM CLR 30/09 A3020 RMK AO2
  • 212215Z AUTO 20003KT 10SM CLR 30/09 A3020 RMK AO2

TAF KSME
Valid from the 22 at 00:00 until the 23 at 00:00 UTC


212324Z 2200/2224 00000KT P6SM FEW250
No reported NOTAMs for that airfield.



MET'MAP, your aeronautical weather chart ! - Copyright ORBIFLY December 2007 - Disclaimer

ORBIFLY MET'MAP TEAM :

Programming & Development : Alexandra Zaïnal
Concept & Development : Baudouin d'Aumeries
Co-Development & Prog : Marc-Olivier Méhu
Technical & hardware support : Manuel Goepfert

Contact : metmap@orbifly.com




SOURCES & CREDITS :

   NOAA       Earth
Advisory